Time;durP1;ratioP1;P1;durP2;ratioP2;P2;SDS_P1;SDS_P2;PMS_P1;PMS_P2;Temp;Humidity;BMP_temperature;BMP_pressure;BME280_temperature;BME280_humidity;BME280_pressure;Samples;Min_cycle;Max_cycle;Signal;HPM_P1;HPM_P2
2023/07/26 00:01:45;;;;;;;;;;;21.40;49.20;;;;;;5072548;28;20020;-54
2023/07/26 00:04:12;;;;;;;;;;;21.40;49.30;;;;;;5087972;28;19951;-53
2023/07/26 00:06:38;;;;;;;;;;;21.40;49.30;;;;;;5068152;28;19924;-53
2023/07/26 00:09:05;;;;;;;;;;;21.40;49.20;;;;;;5070939;28;19946;-51
2023/07/26 00:11:32;;;;;;;;;;;21.40;49.20;;;;;;5070148;28;19947;-54
2023/07/26 00:13:59;;;;;;;;;;;21.40;49.20;;;;;;5070295;28;20186;-53
2023/07/26 00:16:27;;;;;;;;;;;21.40;49.20;;;;;;5086314;28;19936;-53
2023/07/26 00:18:54;;;;;;;;;;;21.40;49.20;;;;;;5052570;28;19924;-53
2023/07/26 00:21:20;;;;;;;;;;;21.40;49.20;;;;;;5069704;28;19924;-51
2023/07/26 00:23:47;;;;;;;;;;;21.40;49.30;;;;;;5081320;28;19952;-50
2023/07/26 00:26:14;;;;;;;;;;;21.40;49.30;;;;;;5068866;28;19925;-54
2023/07/26 00:28:41;;;;;;;;;;;21.40;49.30;;;;;;5070980;28;19925;-54
2023/07/26 00:31:08;;;;;;;;;;;21.40;49.20;;;;;;5069842;28;19943;-50
2023/07/26 00:33:36;;;;;;;;;;;21.40;49.30;;;;;;5070038;28;20288;-54
2023/07/26 00:36:03;;;;;;;;;;;21.40;49.20;;;;;;5069149;28;19936;-52
2023/07/26 00:38:30;;;;;;;;;;;21.40;49.30;;;;;;5085711;28;19964;-55
2023/07/26 00:40:57;;;;;;;;;;;21.40;49.30;;;;;;5066096;28;19932;-54
2023/07/26 00:43:23;;;;;;;;;;;21.40;49.30;;;;;;5071532;28;19925;-53
2023/07/26 00:45:50;;;;;;;;;;;21.40;49.30;;;;;;5068263;28;19931;-54
2023/07/26 00:48:17;;;;;;;;;;;21.50;49.30;;;;;;5070081;28;19924;-56
2023/07/26 00:50:45;;;;;;;;;;;21.40;49.20;;;;;;5074446;28;19947;-54
2023/07/26 00:53:12;;;;;;;;;;;21.40;49.20;;;;;;5070461;28;19952;-49
2023/07/26 00:55:39;;;;;;;;;;;21.40;49.20;;;;;;5071015;28;19928;-54
2023/07/26 00:58:06;;;;;;;;;;;21.40;49.20;;;;;;5069476;28;19978;-54
2023/07/26 01:00:32;;;;;;;;;;;21.40;49.20;;;;;;5072064;28;19934;-52
2023/07/26 01:02:59;;;;;;;;;;;21.50;49.30;;;;;;5071898;28;19936;-53
2023/07/26 01:05:28;;;;;;;;;;;21.50;49.30;;;;;;5072612;28;19955;-52
2023/07/26 01:07:58;;;;;;;;;;;21.40;49.20;;;;;;5071322;28;19929;-55
2023/07/26 01:10:25;;;;;;;;;;;21.40;49.20;;;;;;5071212;28;19924;-55
2023/07/26 01:12:53;;;;;;;;;;;21.40;49.20;;;;;;5061650;28;20019;-55
2023/07/26 01:15:20;;;;;;;;;;;21.40;49.20;;;;;;5071294;28;19931;-52
2023/07/26 01:17:46;;;;;;;;;;;21.50;49.30;;;;;;5086795;28;19924;-55
2023/07/26 01:20:13;;;;;;;;;;;21.40;49.30;;;;;;5069334;28;19924;-53
2023/07/26 01:22:41;;;;;;;;;;;21.40;49.20;;;;;;5070563;28;20339;-53
2023/07/26 01:25:11;;;;;;;;;;;21.50;49.30;;;;;;5066358;28;19929;-51
2023/07/26 01:27:38;;;;;;;;;;;21.40;49.20;;;;;;5081564;28;19984;-55
2023/07/26 01:30:05;;;;;;;;;;;21.50;49.30;;;;;;5058956;28;19925;-53
2023/07/26 01:32:32;;;;;;;;;;;21.50;49.30;;;;;;5083923;28;19924;-52
2023/07/26 01:34:59;;;;;;;;;;;21.50;49.30;;;;;;5070305;28;19977;-54
2023/07/26 01:37:26;;;;;;;;;;;21.40;49.20;;;;;;5069520;28;19932;-55
2023/07/26 01:39:54;;;;;;;;;;;21.40;49.20;;;;;;5073279;28;19954;-53
2023/07/26 01:42:20;;;;;;;;;;;21.50;49.20;;;;;;5066288;28;19940;-50
2023/07/26 01:44:47;;;;;;;;;;;21.50;49.20;;;;;;5070291;28;19975;-56
2023/07/26 01:47:13;;;;;;;;;;;21.50;49.20;;;;;;5071238;28;19928;-54
2023/07/26 01:49:40;;;;;;;;;;;21.50;49.20;;;;;;5063553;28;20006;-54
2023/07/26 01:52:06;;;;;;;;;;;21.50;49.20;;;;;;5070616;28;19924;-54
2023/07/26 01:54:33;;;;;;;;;;;21.50;49.20;;;;;;5071755;28;19936;-51
2023/07/26 01:57:01;;;;;;;;;;;21.40;49.20;;;;;;5066684;28;19928;-53
2023/07/26 01:59:28;;;;;;;;;;;21.50;49.20;;;;;;5082138;28;19990;-55
2023/07/26 02:01:55;;;;;;;;;;;21.50;49.20;;;;;;5083629;28;19974;-54
2023/07/26 02:04:22;;;;;;;;;;;21.50;49.20;;;;;;5062914;28;19932;-53
2023/07/26 02:06:48;;;;;;;;;;;21.40;49.20;;;;;;5070370;28;19931;-53
2023/07/26 02:09:15;;;;;;;;;;;21.40;49.20;;;;;;5070069;28;19928;-51
2023/07/26 02:11:42;;;;;;;;;;;21.40;49.20;;;;;;5070989;28;19936;-52
2023/07/26 02:14:10;;;;;;;;;;;21.40;49.10;;;;;;5070617;28;19947;-52
2023/07/26 02:16:37;;;;;;;;;;;21.40;49.20;;;;;;5083798;28;19986;-53
2023/07/26 02:19:04;;;;;;;;;;;21.40;49.20;;;;;;5080135;28;19932;-53
2023/07/26 02:21:31;;;;;;;;;;;21.40;49.20;;;;;;5070690;28;20011;-52
2023/07/26 02:23:57;;;;;;;;;;;21.40;49.20;;;;;;5069841;28;19928;-54
2023/07/26 02:26:24;;;;;;;;;;;21.40;49.20;;;;;;5086179;28;19928;-53
2023/07/26 02:28:51;;;;;;;;;;;21.40;49.20;;;;;;5085815;28;19931;-50
2023/07/26 02:31:19;;;;;;;;;;;21.50;49.20;;;;;;5072873;28;20396;-55
2023/07/26 02:33:46;;;;;;;;;;;21.40;49.20;;;;;;5085148;28;19925;-54
2023/07/26 02:36:13;;;;;;;;;;;21.40;49.20;;;;;;5085190;28;19928;-54
2023/07/26 02:38:39;;;;;;;;;;;21.50;49.20;;;;;;5069472;28;19928;-54
2023/07/26 02:41:07;;;;;;;;;;;21.40;49.10;;;;;;5070081;28;19965;-55
2023/07/26 02:43:34;;;;;;;;;;;21.50;49.20;;;;;;5063736;28;19981;-55
2023/07/26 02:46:00;;;;;;;;;;;21.40;49.20;;;;;;5068095;28;19974;-56
2023/07/26 02:48:29;;;;;;;;;;;21.40;49.20;;;;;;5069469;28;19924;-50
2023/07/26 02:50:55;;;;;;;;;;;21.40;49.20;;;;;;5087510;28;19924;-54
2023/07/26 02:53:22;;;;;;;;;;;21.40;49.10;;;;;;5070944;28;20407;-52
2023/07/26 02:55:49;;;;;;;;;;;21.40;49.10;;;;;;5073079;28;19963;-53
2023/07/26 02:58:16;;;;;;;;;;;21.40;49.10;;;;;;5071707;28;19928;-55
2023/07/26 03:00:43;;;;;;;;;;;21.40;49.10;;;;;;5073595;28;19970;-55
2023/07/26 03:03:09;;;;;;;;;;;21.40;49.10;;;;;;5073026;28;19928;-52
2023/07/26 03:05:38;;;;;;;;;;;21.40;49.20;;;;;;5072663;28;19924;-54
2023/07/26 03:08:05;;;;;;;;;;;21.40;49.20;;;;;;5070226;28;19928;-53
2023/07/26 03:10:33;;;;;;;;;;;21.40;49.20;;;;;;5066960;28;19928;-53
2023/07/26 03:12:59;;;;;;;;;;;21.40;49.10;;;;;;5073589;28;19990;-54
2023/07/26 03:15:26;;;;;;;;;;;21.40;49.10;;;;;;5075969;28;19932;-55
2023/07/26 03:17:53;;;;;;;;;;;21.40;49.10;;;;;;5072186;28;19977;-56
2023/07/26 03:20:19;;;;;;;;;;;21.40;49.10;;;;;;5089496;28;19925;-54
2023/07/26 03:22:48;;;;;;;;;;;21.40;49.10;;;;;;5070816;28;19932;-53
2023/07/26 03:25:15;;;;;;;;;;;21.40;49.10;;;;;;5084993;28;19978;-52
2023/07/26 03:27:41;;;;;;;;;;;21.40;49.20;;;;;;5074035;28;19932;-52
2023/07/26 03:30:08;;;;;;;;;;;21.40;49.10;;;;;;5072126;28;19928;-52
2023/07/26 03:32:35;;;;;;;;;;;21.40;49.10;;;;;;5072381;28;20320;-55
2023/07/26 03:35:02;;;;;;;;;;;21.40;49.10;;;;;;5072437;28;19928;-54
2023/07/26 03:37:28;;;;;;;;;;;21.40;49.20;;;;;;5070374;28;20300;-55
2023/07/26 03:39:57;;;;;;;;;;;21.40;49.10;;;;;;5071139;28;19928;-55
2023/07/26 03:42:24;;;;;;;;;;;21.40;49.10;;;;;;5071264;28;19933;-55
2023/07/26 03:44:50;;;;;;;;;;;21.40;49.20;;;;;;5088073;28;19928;-56
2023/07/26 03:47:17;;;;;;;;;;;21.40;49.10;;;;;;5088249;28;19928;-55
2023/07/26 03:49:44;;;;;;;;;;;21.40;49.20;;;;;;5056341;28;19932;-55
2023/07/26 03:52:11;;;;;;;;;;;21.40;49.20;;;;;;5073243;28;19924;-53
2023/07/26 03:54:38;;;;;;;;;;;21.40;49.20;;;;;;5071714;28;19985;-54
2023/07/26 03:57:07;;;;;;;;;;;21.40;49.20;;;;;;5087000;28;19928;-55
2023/07/26 03:59:34;;;;;;;;;;;21.40;49.20;;;;;;5070947;28;19931;-55
2023/07/26 04:02:01;;;;;;;;;;;21.40;49.10;;;;;;5071667;28;19925;-55
2023/07/26 04:04:28;;;;;;;;;;;21.40;49.10;;;;;;5071781;28;19933;-54
2023/07/26 04:06:54;;;;;;;;;;;21.40;49.10;;;;;;5071707;28;19929;-56
2023/07/26 04:09:21;;;;;;;;;;;21.40;49.10;;;;;;5068207;28;19928;-55
2023/07/26 04:11:48;;;;;;;;;;;21.40;49.20;;;;;;5072569;28;20439;-53
2023/07/26 04:14:16;;;;;;;;;;;21.40;49.10;;;;;;5072719;28;19940;-54
2023/07/26 04:16:43;;;;;;;;;;;21.40;49.10;;;;;;5070654;28;19979;-54
2023/07/26 04:19:09;;;;;;;;;;;21.40;49.10;;;;;;5064276;28;19924;-51
2023/07/26 04:21:36;;;;;;;;;;;21.40;49.10;;;;;;5068786;28;19947;-52
2023/07/26 04:24:03;;;;;;;;;;;21.40;49.10;;;;;;5070411;28;19928;-52
2023/07/26 04:26:30;;;;;;;;;;;21.40;49.20;;;;;;5069629;28;19982;-52
2023/07/26 04:28:56;;;;;;;;;;;21.40;49.20;;;;;;5088057;28;19928;-54
2023/07/26 04:31:25;;;;;;;;;;;21.40;49.20;;;;;;5072177;28;19954;-50
2023/07/26 04:33:51;;;;;;;;;;;21.40;49.20;;;;;;5070245;28;19925;-53
2023/07/26 04:36:18;;;;;;;;;;;21.40;49.30;;;;;;5086533;28;20014;-53
2023/07/26 04:38:45;;;;;;;;;;;21.40;49.30;;;;;;5070517;28;19933;-53
2023/07/26 04:41:13;;;;;;;;;;;21.40;49.30;;;;;;5068003;28;19925;-51
2023/07/26 04:43:39;;;;;;;;;;;21.40;49.30;;;;;;5067239;28;19947;-53
2023/07/26 04:46:06;;;;;;;;;;;21.40;49.40;;;;;;5069158;28;19998;-53
2023/07/26 04:48:34;;;;;;;;;;;21.40;49.30;;;;;;5069628;28;19928;-51
2023/07/26 04:51:01;;;;;;;;;;;21.40;49.30;;;;;;5087201;28;19924;-52
2023/07/26 04:53:28;;;;;;;;;;;21.40;49.40;;;;;;5068967;28;19924;-49
2023/07/26 04:55:55;;;;;;;;;;;21.40;49.40;;;;;;5066256;28;19925;-53
2023/07/26 04:58:22;;;;;;;;;;;21.40;49.40;;;;;;5069156;28;19924;-52
2023/07/26 05:00:50;;;;;;;;;;;21.40;49.40;;;;;;5065055;28;19975;-54
2023/07/26 05:03:16;;;;;;;;;;;21.40;49.40;;;;;;5069490;28;19932;-56
2023/07/26 05:05:46;;;;;;;;;;;21.40;49.40;;;;;;5087612;28;19932;-54
2023/07/26 05:08:13;;;;;;;;;;;21.40;49.40;;;;;;5069780;28;19924;-56
2023/07/26 05:10:40;;;;;;;;;;;21.40;49.40;;;;;;5071345;28;19932;-50
2023/07/26 05:13:07;;;;;;;;;;;21.40;49.40;;;;;;5068892;28;19932;-47
2023/07/26 05:15:34;;;;;;;;;;;21.40;50.10;;;;;;5069903;28;20297;-54
2023/07/26 05:18:00;;;;;;;;;;;21.40;49.50;;;;;;5084001;28;19928;-53
2023/07/26 05:20:27;;;;;;;;;;;21.40;49.50;;;;;;5062663;28;19994;-53
2023/07/26 05:22:55;;;;;;;;;;;21.40;49.50;;;;;;5069848;28;20054;-55
2023/07/26 05:25:22;;;;;;;;;;;21.40;49.50;;;;;;5082896;28;19925;-52
2023/07/26 05:27:49;;;;;;;;;;;21.40;49.60;;;;;;5070718;28;19924;-53
2023/07/26 05:30:17;;;;;;;;;;;21.40;49.60;;;;;;5068809;28;20014;-54
2023/07/26 05:32:44;;;;;;;;;;;21.40;49.60;;;;;;5067637;28;20012;-54
2023/07/26 05:35:12;;;;;;;;;;;21.40;49.60;;;;;;5070016;28;19925;-54
2023/07/26 05:37:38;;;;;;;;;;;21.40;49.70;;;;;;5066249;28;19925;-55
2023/07/26 05:40:07;;;;;;;;;;;21.50;49.70;;;;;;5063297;28;19928;-50
2023/07/26 05:42:34;;;;;;;;;;;21.40;49.70;;;;;;5063658;28;20007;-54
2023/07/26 05:45:01;;;;;;;;;;;21.40;49.70;;;;;;5065104;28;19936;-50
2023/07/26 05:47:30;;;;;;;;;;;21.40;49.70;;;;;;5065055;28;19924;-54
2023/07/26 05:49:57;;;;;;;;;;;21.40;49.70;;;;;;5082485;28;19974;-54
2023/07/26 05:52:23;;;;;;;;;;;21.50;49.80;;;;;;5065664;28;19924;-54
2023/07/26 05:54:50;;;;;;;;;;;21.50;49.80;;;;;;5065463;28;19936;-49
2023/07/26 05:57:18;;;;;;;;;;;21.50;49.90;;;;;;5070274;28;19928;-55
2023/07/26 05:59:45;;;;;;;;;;;21.50;49.90;;;;;;5067329;28;19974;-53
2023/07/26 06:02:12;;;;;;;;;;;21.50;49.90;;;;;;5063014;28;19924;-50
2023/07/26 06:04:39;;;;;;;;;;;21.50;49.90;;;;;;5065562;28;20358;-53
2023/07/26 06:07:06;;;;;;;;;;;21.50;49.90;;;;;;5067837;28;19924;-50
2023/07/26 06:09:33;;;;;;;;;;;21.50;49.90;;;;;;5067214;28;19939;-55
2023/07/26 06:12:00;;;;;;;;;;;21.50;49.90;;;;;;5065242;28;19928;-54
2023/07/26 06:14:29;;;;;;;;;;;21.50;49.90;;;;;;5065628;28;19929;-52
2023/07/26 06:16:55;;;;;;;;;;;21.50;49.90;;;;;;5064724;28;19936;-53
2023/07/26 06:19:22;;;;;;;;;;;21.50;50.00;;;;;;5067701;28;19989;-57
2023/07/26 06:21:49;;;;;;;;;;;21.50;50.00;;;;;;5082498;28;19924;-57
2023/07/26 06:24:16;;;;;;;;;;;21.50;50.10;;;;;;5085245;28;20015;-57
2023/07/26 06:26:43;;;;;;;;;;;21.50;50.20;;;;;;5089878;28;19931;-57
2023/07/26 06:29:10;;;;;;;;;;;21.40;50.20;;;;;;5071572;28;19964;-57
2023/07/26 06:31:38;;;;;;;;;;;21.40;50.20;;;;;;5067278;28;19932;-58
2023/07/26 06:34:05;;;;;;;;;;;21.30;50.20;;;;;;5077136;28;19924;-59
2023/07/26 06:36:32;;;;;;;;;;;21.30;50.40;;;;;;5070680;28;20347;-58
2023/07/26 06:38:58;;;;;;;;;;;21.20;50.50;;;;;;5074356;28;19982;-58
2023/07/26 06:41:25;;;;;;;;;;;21.20;50.70;;;;;;5073016;28;19928;-55
2023/07/26 06:43:52;;;;;;;;;;;21.20;50.70;;;;;;5071960;28;19952;-57
2023/07/26 06:46:19;;;;;;;;;;;21.10;50.70;;;;;;5074085;28;19924;-57
2023/07/26 06:48:47;;;;;;;;;;;21.10;50.90;;;;;;5064879;28;19924;-58
2023/07/26 06:51:14;;;;;;;;;;;21.10;50.90;;;;;;5071709;28;19928;-58
2023/07/26 06:53:40;;;;;;;;;;;21.10;51.10;;;;;;5063492;28;19928;-57
2023/07/26 06:56:07;;;;;;;;;;;21.00;51.00;;;;;;5087808;28;19925;-58
2023/07/26 06:58:34;;;;;;;;;;;21.00;51.00;;;;;;5088213;28;19932;-56
2023/07/26 07:01:01;;;;;;;;;;;20.90;51.10;;;;;;5067299;28;19928;-58
2023/07/26 07:03:28;;;;;;;;;;;20.90;51.10;;;;;;5069000;28;20305;-58
2023/07/26 07:05:56;;;;;;;;;;;20.90;51.20;;;;;;5065948;28;19940;-58
2023/07/26 07:08:24;;;;;;;;;;;20.90;51.40;;;;;;5078602;28;21380;-58
2023/07/26 07:10:51;;;;;;;;;;;20.90;51.50;;;;;;5082736;28;19978;-59
2023/07/26 07:13:18;;;;;;;;;;;20.80;51.40;;;;;;5069761;28;19936;-59
2023/07/26 07:15:45;;;;;;;;;;;20.80;51.40;;;;;;5070019;28;19924;-59
2023/07/26 07:18:11;;;;;;;;;;;20.80;51.40;;;;;;5068439;28;19929;-59
2023/07/26 07:20:38;;;;;;;;;;;20.80;51.20;;;;;;5070924;28;20374;-58
2023/07/26 07:23:06;;;;;;;;;;;20.80;51.30;;;;;;5069746;28;19986;-58
2023/07/26 07:25:33;;;;;;;;;;;20.80;51.50;;;;;;5072172;28;19932;-58
2023/07/26 07:28:00;;;;;;;;;;;20.70;51.40;;;;;;5071755;28;19931;-58
2023/07/26 07:30:26;;;;;;;;;;;20.70;51.30;;;;;;5071531;28;19932;-58
2023/07/26 07:32:53;;;;;;;;;;;20.70;51.50;;;;;;5070999;28;19928;-58
2023/07/26 07:35:20;;;;;;;;;;;20.70;51.60;;;;;;5086704;28;20458;-59
2023/07/26 07:37:47;;;;;;;;;;;20.70;51.30;;;;;;5069111;28;19928;-58
2023/07/26 07:40:15;;;;;;;;;;;20.70;51.20;;;;;;5067869;28;19924;-57
2023/07/26 07:42:42;;;;;;;;;;;20.70;51.20;;;;;;5084294;28;19939;-60
2023/07/26 07:45:09;;;;;;;;;;;20.70;51.30;;;;;;5067677;28;19936;-58
2023/07/26 07:47:36;;;;;;;;;;;20.60;51.20;;;;;;5067734;28;19928;-58
2023/07/26 07:50:06;;;;;;;;;;;20.60;51.30;;;;;;5063366;28;19931;-58
2023/07/26 07:52:33;;;;;;;;;;;20.60;51.30;;;;;;5067824;28;20294;-58
2023/07/26 07:55:00;;;;;;;;;;;20.70;51.40;;;;;;5069482;28;19970;-58
2023/07/26 07:57:28;;;;;;;;;;;20.60;51.20;;;;;;5063854;28;19933;-58
2023/07/26 07:59:55;;;;;;;;;;;20.60;51.20;;;;;;5072793;28;19932;-58
2023/07/26 08:02:21;;;;;;;;;;;20.60;51.20;;;;;;5067712;28;19932;-58
2023/07/26 08:04:48;;;;;;;;;;;20.60;51.20;;;;;;5088134;28;19932;-57
2023/07/26 08:07:15;;;;;;;;;;;20.60;51.10;;;;;;5081548;28;19925;-57
2023/07/26 08:09:42;;;;;;;;;;;20.60;51.10;;;;;;5070385;28;19931;-58
2023/07/26 08:12:09;;;;;;;;;;;20.60;51.10;;;;;;5066232;28;19932;-57
2023/07/26 08:14:37;;;;;;;;;;;20.60;50.90;;;;;;5072007;28;19924;-58
2023/07/26 08:17:06;;;;;;;;;;;20.60;50.80;;;;;;5071468;28;19928;-57
2023/07/26 08:19:33;;;;;;;;;;;20.60;50.60;;;;;;5067114;28;19932;-58
2023/07/26 08:22:00;;;;;;;;;;;20.60;50.60;;;;;;5069530;28;20023;-56
2023/07/26 08:24:26;;;;;;;;;;;20.60;50.60;;;;;;5082358;28;19935;-59
2023/07/26 08:26:53;;;;;;;;;;;20.60;51.30;;;;;;5070328;28;20380;-58
2023/07/26 08:29:20;;;;;;;;;;;20.60;50.60;;;;;;5069836;28;19924;-57
2023/07/26 08:31:48;;;;;;;;;;;20.60;50.60;;;;;;5070313;28;19973;-59
2023/07/26 08:34:15;;;;;;;;;;;20.60;50.60;;;;;;5069770;28;19924;-57
2023/07/26 08:36:41;;;;;;;;;;;20.60;50.60;;;;;;5087256;28;19925;-57
2023/07/26 08:39:11;;;;;;;;;;;20.60;50.20;;;;;;5086105;28;19981;-58
2023/07/26 08:41:38;;;;;;;;;;;20.60;49.90;;;;;;5084698;28;19978;-58
2023/07/26 08:44:05;;;;;;;;;;;20.60;49.70;;;;;;5066116;28;19928;-53
2023/07/26 08:46:31;;;;;;;;;;;20.60;49.50;;;;;;5082967;28;19935;-56
2023/07/26 08:49:00;;;;;;;;;;;20.50;49.50;;;;;;5068734;28;19928;-58
2023/07/26 08:51:27;;;;;;;;;;;20.50;49.40;;;;;;5084954;28;19933;-58
2023/07/26 08:53:53;;;;;;;;;;;20.50;49.20;;;;;;5069111;28;19952;-58
2023/07/26 08:56:20;;;;;;;;;;;20.50;49.20;;;;;;5066380;28;19932;-59
2023/07/26 08:58:47;;;;;;;;;;;20.50;49.20;;;;;;5068892;28;19978;-59
2023/07/26 09:01:14;;;;;;;;;;;20.50;49.30;;;;;;5065529;28;19924;-58
2023/07/26 09:03:41;;;;;;;;;;;20.50;49.40;;;;;;5071530;28;19925;-59
2023/07/26 09:06:11;;;;;;;;;;;20.50;49.40;;;;;;5064254;28;19924;-57
2023/07/26 09:08:38;;;;;;;;;;;20.60;49.50;;;;;;5063557;28;19924;-59
2023/07/26 09:11:20;;;;;;;;;;;20.60;49.50;;;;;;5071875;28;19969;-58
2023/07/26 09:13:51;;;;;;;;;;;20.60;49.40;;;;;;5065246;28;20015;-59
2023/07/26 09:16:17;;;;;;;;;;;20.60;49.30;;;;;;5084151;28;20270;-59
2023/07/26 09:18:55;;;;;;;;;;;20.60;49.10;;;;;;5067834;28;19924;-60
2023/07/26 09:21:26;;;;;;;;;;;20.60;49.10;;;;;;5083273;28;20331;-60
2023/07/26 09:23:55;;;;;;;;;;;20.60;49.10;;;;;;5064484;28;19925;-60
2023/07/26 09:26:35;;;;;;;;;;;20.70;49.20;;;;;;5063605;28;19978;-59
2023/07/26 09:29:02;;;;;;;;;;;20.70;49.20;;;;;;5066700;28;19956;-57
2023/07/26 09:31:32;;;;;;;;;;;20.70;49.20;;;;;;5072677;28;19924;-58
2023/07/26 09:33:59;;;;;;;;;;;20.70;49.00;;;;;;5067192;28;20015;-58
2023/07/26 09:36:28;;;;;;;;;;;20.70;49.00;;;;;;5063558;28;19924;-58
2023/07/26 09:38:54;;;;;;;;;;;20.70;48.80;;;;;;5066595;28;19946;-58
2023/07/26 09:41:22;;;;;;;;;;;20.70;49.40;;;;;;5084417;28;19932;-58
2023/07/26 09:43:49;;;;;;;;;;;20.80;48.80;;;;;;5068706;28;20362;-57
2023/07/26 09:46:17;;;;;;;;;;;20.80;48.50;;;;;;5066547;28;19924;-59
2023/07/26 09:48:56;;;;;;;;;;;20.80;48.70;;;;;;5065251;28;20110;-59
2023/07/26 09:51:24;;;;;;;;;;;20.80;48.50;;;;;;5065440;28;19928;-58
2023/07/26 09:53:52;;;;;;;;;;;20.80;48.70;;;;;;5068745;28;19924;-59
2023/07/26 09:56:19;;;;;;;;;;;20.80;48.30;;;;;;5080173;28;19939;-59
2023/07/26 09:58:46;;;;;;;;;;;20.80;48.30;;;;;;5061324;28;19986;-58
2023/07/26 10:01:13;;;;;;;;;;;20.90;48.30;;;;;;5071687;28;19924;-59
2023/07/26 10:03:40;;;;;;;;;;;20.90;48.20;;;;;;5071217;28;19932;-60
2023/07/26 10:06:06;;;;;;;;;;;20.90;48.30;;;;;;5071726;28;19920;-58
2023/07/26 10:08:33;;;;;;;;;;;20.90;48.20;;;;;;5066566;28;19925;-58
2023/07/26 10:11:01;;;;;;;;;;;20.90;48.00;;;;;;5069759;28;19929;-59
2023/07/26 10:13:28;;;;;;;;;;;20.90;48.00;;;;;;5066159;28;19928;-57
2023/07/26 10:15:55;;;;;;;;;;;20.90;47.90;;;;;;5071986;28;19924;-55
2023/07/26 10:18:22;;;;;;;;;;;20.90;47.90;;;;;;5069677;28;19924;-58
2023/07/26 10:20:49;;;;;;;;;;;20.90;47.80;;;;;;5068641;28;19940;-56
2023/07/26 10:23:16;;;;;;;;;;;20.90;46.70;;;;;;5089057;28;19929;-58
2023/07/26 10:25:42;;;;;;;;;;;20.90;46.30;;;;;;5088249;28;19936;-58
2023/07/26 10:28:11;;;;;;;;;;;20.90;46.70;;;;;;5073240;28;19978;-58
2023/07/26 10:30:38;;;;;;;;;;;20.80;47.00;;;;;;5085166;28;20439;-58
2023/07/26 10:33:05;;;;;;;;;;;20.80;47.10;;;;;;5079548;28;19970;-58
2023/07/26 10:35:32;;;;;;;;;;;20.80;47.30;;;;;;5071256;28;19936;-59
2023/07/26 10:37:59;;;;;;;;;;;20.80;47.40;;;;;;5088811;28;19970;-58
2023/07/26 10:40:29;;;;;;;;;;;20.80;47.60;;;;;;5068428;28;19936;-58
2023/07/26 10:42:56;;;;;;;;;;;20.80;47.60;;;;;;5072487;28;19955;-54
2023/07/26 10:45:42;;;;;;;;;;;20.80;47.40;;;;;;5073496;28;19932;-57
2023/07/26 10:48:16;;;;;;;;;;;20.90;47.60;;;;;;5083010;28;19925;-55
2023/07/26 10:50:42;;;;;;;;;;;20.90;47.60;;;;;;5066442;28;19929;-59
2023/07/26 10:53:29;;;;;;;;;;;20.90;47.80;;;;;;5062087;28;19971;-56
2023/07/26 10:55:57;;;;;;;;;;;20.90;48.50;;;;;;5066487;28;19929;-57
2023/07/26 10:58:24;;;;;;;;;;;20.90;47.90;;;;;;5065602;28;19932;-57
2023/07/26 11:00:52;;;;;;;;;;;20.90;47.90;;;;;;5071106;28;19928;-57
2023/07/26 11:03:23;;;;;;;;;;;21.00;47.90;;;;;;5085774;28;19977;-59
2023/07/26 11:05:54;;;;;;;;;;;21.00;47.90;;;;;;5069021;28;19932;-56
2023/07/26 11:08:21;;;;;;;;;;;21.00;47.80;;;;;;5070305;28;19935;-58
2023/07/26 11:10:50;;;;;;;;;;;21.00;48.00;;;;;;5077385;28;19928;-60
2023/07/26 11:13:18;;;;;;;;;;;21.00;47.40;;;;;;5069649;28;19936;-60
2023/07/26 11:15:45;;;;;;;;;;;21.00;47.10;;;;;;5068206;28;19928;-58
2023/07/26 11:18:14;;;;;;;;;;;21.00;47.10;;;;;;5070566;28;19935;-59
2023/07/26 11:20:41;;;;;;;;;;;21.00;47.20;;;;;;5086045;28;19928;-60
2023/07/26 11:23:17;;;;;;;;;;;21.00;47.20;;;;;;5072305;28;19925;-58
2023/07/26 11:25:45;;;;;;;;;;;21.00;47.20;;;;;;5071069;28;19928;-59
2023/07/26 11:28:11;;;;;;;;;;;21.00;47.00;;;;;;5067600;28;19932;-59
2023/07/26 11:30:38;;;;;;;;;;;21.00;47.00;;;;;;5071275;28;19924;-58
2023/07/26 11:33:05;;;;;;;;;;;21.00;47.00;;;;;;5071856;28;19924;-57
2023/07/26 11:35:40;;;;;;;;;;;21.00;47.00;;;;;;5066638;28;19928;-59
2023/07/26 11:38:07;;;;;;;;;;;21.00;47.00;;;;;;5067801;28;19925;-61
2023/07/26 11:40:38;;;;;;;;;;;21.00;47.10;;;;;;5069753;28;20411;-60
2023/07/26 11:43:05;;;;;;;;;;;21.00;47.10;;;;;;5086629;28;19924;-59
2023/07/26 11:45:32;;;;;;;;;;;21.10;47.10;;;;;;5074312;28;20615;-58
2023/07/26 11:47:59;;;;;;;;;;;21.10;47.00;;;;;;5069538;28;19924;-59
2023/07/26 11:50:25;;;;;;;;;;;21.10;47.20;;;;;;5070629;28;19933;-58
2023/07/26 11:53:06;;;;;;;;;;;21.10;46.60;;;;;;5085975;28;19924;-60
2023/07/26 11:55:33;;;;;;;;;;;21.10;45.90;;;;;;5067743;28;19933;-61
2023/07/26 11:58:03;;;;;;;;;;;21.10;45.90;;;;;;5065312;28;19931;-57
2023/07/26 12:00:30;;;;;;;;;;;21.00;46.00;;;;;;5073664;28;19947;-59
2023/07/26 12:02:57;;;;;;;;;;;21.00;46.10;;;;;;5073190;28;19924;-57
2023/07/26 12:05:25;;;;;;;;;;;21.00;46.00;;;;;;5066664;28;19925;-60
2023/07/26 12:07:53;;;;;;;;;;;21.00;46.40;;;;;;5061326;28;19955;-58
2023/07/26 12:10:28;;;;;;;;;;;20.90;46.80;;;;;;5067527;28;19967;-59
2023/07/26 12:12:55;;;;;;;;;;;20.90;47.20;;;;;;5084400;28;19928;-59
2023/07/26 12:15:22;;;;;;;;;;;20.80;47.40;;;;;;5084211;28;19940;-58
2023/07/26 12:17:56;;;;;;;;;;;20.80;47.60;;;;;;5066931;28;19932;-59
2023/07/26 12:20:23;;;;;;;;;;;20.70;47.60;;;;;;5065846;28;20366;-59
2023/07/26 12:22:51;;;;;;;;;;;20.70;47.70;;;;;;5068574;28;19935;-55
2023/07/26 12:25:17;;;;;;;;;;;20.70;47.90;;;;;;5064922;28;20018;-56
2023/07/26 12:27:46;;;;;;;;;;;20.60;48.00;;;;;;5069464;28;19924;-56
2023/07/26 12:30:12;;;;;;;;;;;20.60;48.10;;;;;;5065851;28;20187;-54
2023/07/26 12:32:40;;;;;;;;;;;20.70;48.20;;;;;;5067434;28;19970;-53
2023/07/26 12:35:17;;;;;;;;;;;20.70;48.30;;;;;;5084855;28;19928;-51
2023/07/26 12:37:44;;;;;;;;;;;20.70;48.30;;;;;;5066255;28;19925;-56
2023/07/26 12:40:11;;;;;;;;;;;20.70;48.30;;;;;;5066963;28;19925;-56
2023/07/26 12:42:38;;;;;;;;;;;20.80;48.40;;;;;;5066508;28;19977;-54
2023/07/26 12:45:07;;;;;;;;;;;20.80;48.40;;;;;;5067208;28;19994;-56
2023/07/26 12:47:34;;;;;;;;;;;20.80;48.50;;;;;;5082884;28;19932;-56
2023/07/26 12:50:01;;;;;;;;;;;20.90;48.60;;;;;;5066805;28;19932;-56
2023/07/26 12:52:28;;;;;;;;;;;20.90;48.60;;;;;;5085673;28;19946;-56
2023/07/26 12:54:55;;;;;;;;;;;20.90;48.70;;;;;;5068130;28;20012;-55
2023/07/26 12:57:22;;;;;;;;;;;20.90;48.80;;;;;;5066919;28;20522;-56
2023/07/26 12:59:51;;;;;;;;;;;21.00;48.90;;;;;;5068145;28;19933;-55
2023/07/26 13:02:19;;;;;;;;;;;21.00;49.00;;;;;;5058569;28;19932;-57
2023/07/26 13:04:46;;;;;;;;;;;21.00;49.20;;;;;;5072589;28;19924;-55
2023/07/26 13:07:13;;;;;;;;;;;21.10;49.30;;;;;;5068523;28;19924;-56
2023/07/26 13:09:40;;;;;;;;;;;21.10;49.40;;;;;;5066233;28;19929;-58
2023/07/26 13:12:08;;;;;;;;;;;21.10;49.50;;;;;;5058871;28;19924;-55
2023/07/26 13:14:35;;;;;;;;;;;21.10;49.60;;;;;;5069259;28;19924;-54
2023/07/26 13:17:02;;;;;;;;;;;21.10;49.70;;;;;;5065022;28;19940;-54
2023/07/26 13:19:30;;;;;;;;;;;21.10;49.70;;;;;;5066816;28;19932;-52
2023/07/26 13:21:57;;;;;;;;;;;21.10;49.70;;;;;;5066255;28;19933;-54
2023/07/26 13:24:24;;;;;;;;;;;21.20;49.80;;;;;;5066757;28;19929;-55
2023/07/26 13:26:50;;;;;;;;;;;21.20;49.80;;;;;;5066712;28;19924;-57
2023/07/26 13:29:17;;;;;;;;;;;21.20;49.80;;;;;;5065823;28;19950;-58
2023/07/26 13:31:44;;;;;;;;;;;21.20;49.80;;;;;;5067300;28;19978;-58
2023/07/26 13:34:11;;;;;;;;;;;21.20;50.40;;;;;;5062833;28;19935;-55
2023/07/26 13:36:39;;;;;;;;;;;21.20;49.90;;;;;;5069007;28;19924;-57
2023/07/26 13:39:08;;;;;;;;;;;21.20;49.90;;;;;;5066708;28;19932;-55
2023/07/26 13:41:35;;;;;;;;;;;21.20;49.90;;;;;;5063368;28;19928;-57
2023/07/26 13:44:02;;;;;;;;;;;21.20;49.90;;;;;;5069027;28;19935;-57
2023/07/26 13:46:29;;;;;;;;;;;21.30;50.00;;;;;;5084864;28;19933;-55
2023/07/26 13:48:55;;;;;;;;;;;21.30;50.00;;;;;;5067467;28;19925;-55
2023/07/26 13:51:22;;;;;;;;;;;21.30;50.00;;;;;;5063405;28;19937;-57
2023/07/26 13:53:50;;;;;;;;;;;21.30;50.00;;;;;;5066557;28;20328;-56
2023/07/26 13:56:17;;;;;;;;;;;21.30;50.10;;;;;;5061365;28;19932;-56
2023/07/26 13:58:44;;;;;;;;;;;21.30;50.10;;;;;;5066426;28;19925;-56
2023/07/26 14:01:12;;;;;;;;;;;21.30;50.10;;;;;;5067197;28;20010;-58
2023/07/26 14:03:39;;;;;;;;;;;21.30;50.10;;;;;;5066678;28;19924;-55
2023/07/26 14:06:07;;;;;;;;;;;21.30;50.10;;;;;;5051283;28;19929;-57
2023/07/26 14:08:33;;;;;;;;;;;21.30;50.10;;;;;;5063912;28;19924;-54
2023/07/26 14:11:02;;;;;;;;;;;21.30;50.10;;;;;;5064164;28;19925;-57
2023/07/26 14:13:29;;;;;;;;;;;21.40;50.10;;;;;;5085463;28;19942;-57
2023/07/26 14:15:56;;;;;;;;;;;21.40;50.20;;;;;;5064755;28;19968;-51
2023/07/26 14:18:22;;;;;;;;;;;21.40;50.20;;;;;;5065276;28;19934;-57